Météo Nord-Pas-de-Calais   La météo au plus près de chez vous

Station météorologique

Observations météo à St-Auban-Sur-Ouveze (26292)

26292002 625 m Dernier relevé à 23:18
14.9°C
Humidité 65 % Vent 6.5 km/h

Journée consultée

Mardi 1 Septembre 2026

Synthèse de la journée

Périodes de référence en UTC

Température maximale

30.3°C

à 16:18

06h 06h

Température minimale

8.8°C

à 08:00

18h 18h

Rafale maximale

26 km/h

à 14:36

00h 00h

Précipitations

0 mm

Cumul quotidien

06h 06h

Ensoleillement

11h 10 mins

Durée quotidienne

00h 00h

Graphiques de la journée

Heure locale Réduire

Données détaillées

Relevés météo

Pas de 6 minutes Afficher les relevés infra-horaires
Relevés météo détaillés à St-Auban-Sur-Ouveze pour le Mardi 1 Septembre 2026
Heure Température °C Point de rosée °C Humidité % Vent moyen (raf.), km/h Précipitations mm Ensoleillement min Rayonnement global W/m²
23:18 14.9 °C 9.5 °C 70 % 6 km/h (8 km/h) 0 mm0 mm 0 min 0 W/m²
23:12 14.8 °C 9.6 °C 71 % 6 km/h (8 km/h) 0 mm0 mm 0 min 0 W/m²
23:06 15 °C 9.6 °C 70 % 5 km/h (8 km/h) 0 mm0 mm 0 min 0 W/m²
23:00 15.3 °C 9.4 °C 68 % 4 km/h (6 km/h) 0 mm0 mm 0 min 0 W/m²
22:54 15.3 °C 9.6 °C 69 % 5 km/h (9 km/h) 0 mm0 mm 0 min 0 W/m²
22:48 15.4 °C 9.5 °C 68 % 6 km/h (9 km/h) 0 mm0 mm 0 min 0 W/m²
22:42 15.7 °C 9.6 °C 67 % 5 km/h (8 km/h) 0 mm0 mm 0 min 0 W/m²
22:36 15.8 °C 9.5 °C 66 % 5 km/h (8 km/h) 0 mm0 mm 0 min 0 W/m²
22:30 15.8 °C 9.7 °C 67 % 6 km/h (8 km/h) 0 mm0 mm 0 min 0 W/m²
22:24 15.7 °C 9.6 °C 67 % 7 km/h (8 km/h) 0 mm0 mm 0 min 0 W/m²
22:18 16.1 °C 9.5 °C 65 % 6 km/h (9 km/h) 0 mm0 mm 0 min 0 W/m²
22:12 16.4 °C 9.6 °C 64 % 7 km/h (10 km/h) 0 mm0 mm 0 min 0 W/m²
22:06 16.7 °C 9.6 °C 63 % 8 km/h (10 km/h) 0 mm0 mm 0 min 0 W/m²
22:00 16.5 °C 9.9 °C 65 % 8 km/h (10 km/h) 0 mm0 mm 0 min 0 W/m²
21:54 16.6 °C 10 °C 65 % 8 km/h (10 km/h) 0 mm0 mm 0 min 0 W/m²
21:48 16.6 °C 10 °C 65 % 8 km/h (11 km/h) 0 mm0 mm 0 min 0 W/m²
21:42 16.7 °C 10.1 °C 65 % 7 km/h (11 km/h) 0 mm0 mm 0 min 0 W/m²
21:36 17.4 °C 9.8 °C 61 % 5 km/h (8 km/h) 0 mm0 mm 0 min 0 W/m²
21:30 17.7 °C 10.1 °C 61 % 4 km/h (6 km/h) 0 mm0 mm 0 min 0 W/m²
21:24 17.9 °C 10 °C 60 % 6 km/h (8 km/h) 0 mm0 mm 0 min 0 W/m²
21:18 18 °C 10.1 °C 60 % 7 km/h (9 km/h) 0 mm0 mm 0 min 0 W/m²
21:12 18.4 °C 10 °C 58 % 7 km/h (9 km/h) 0 mm0 mm 0 min 0 W/m²
21:06 18.6 °C 10.2 °C 58 % 6 km/h (9 km/h) 0 mm0 mm 0 min 0 W/m²
21:00 19.1 °C 10.1 °C 56 % 8 km/h (13 km/h) 0 mm0 mm 0 min 0 W/m²
20:54 19.2 °C 9.9 °C 55 % 9 km/h (13 km/h) 0 mm0 mm 0 min 0 W/m²
20:48 19.4 °C 10.4 °C 56 % 10 km/h (13 km/h) 0 mm0 mm 0 min 0 W/m²
20:42 19.7 °C 10.4 °C 55 % 10 km/h (13 km/h) 0 mm0 mm 0 min 0 W/m²
20:36 20 °C 10.7 °C 55 % 10 km/h (13 km/h) 0 mm0 mm 0 min 0 W/m²
20:30 20.1 °C 10.8 °C 55 % 8 km/h (13 km/h) 0 mm0 mm 0 min 0 W/m²
20:24 20.8 °C 10.6 °C 52 % 4 km/h (9 km/h) 0 mm0 mm 0 min 0 W/m²
20:18 21.4 °C 10.5 °C 50 % 2 km/h (6 km/h) 0 mm0 mm 0 min 0 W/m²
20:12 22 °C 10.5 °C 48 % 0 km/h (3 km/h) 0 mm0 mm 0 min 0 W/m²
20:06 22.7 °C 10.5 °C 46 % 0 km/h (5 km/h) 0 mm0 mm 0 min 0 W/m²
20:00 23.5 °C 11.2 °C 46 % 3 km/h (7 km/h) 0 mm0 mm 0 min 0 W/m²
19:54 24 °C 11 °C 44 % 5 km/h (8 km/h) 0 mm0 mm 0 min 0 W/m²
19:48 24.7 °C 10.6 °C 41 % 5 km/h (8 km/h) 0 mm0 mm 0 min 3.4 W/m²
19:42 25.1 °C 10.5 °C 40 % 5 km/h (10 km/h) 0 mm0 mm 0 min 7.1 W/m²
19:36 25.6 °C 10.2 °C 38 % 6 km/h (11 km/h) 0 mm0 mm 0 min 9.2 W/m²
19:30 26.4 °C 10.1 °C 36 % 7 km/h (14 km/h) 0 mm0 mm 0 min 11.8 W/m²
19:24 27.1 °C 9 °C 32 % 9 km/h (16 km/h) 0 mm0 mm 0 min 10.7 W/m²
19:18 27.4 °C 8.8 °C 31 % 10 km/h (16 km/h) 0 mm0 mm 0 min 10.3 W/m²
19:12 27.7 °C 9 °C 31 % 9 km/h (15 km/h) 0 mm0 mm 0 min 10.7 W/m²
19:06 28.1 °C 9.9 °C 32 % 9 km/h (19 km/h) 0 mm0 mm 0 min 11.3 W/m²
19:00 28.2 °C 9 °C 30 % 11 km/h (19 km/h) 0 mm0 mm 0 min 11.8 W/m²
18:54 28.4 °C 9.1 °C 30 % 10 km/h (17 km/h) 0 mm0 mm 2 min 38.5 W/m²
18:48 28.7 °C 9.4 °C 30 % 10 km/h (17 km/h) 0 mm0 mm 6 min 78.9 W/m²
18:42 28.7 °C 8.9 °C 29 % 11 km/h (17 km/h) 0 mm0 mm 6 min 74.8 W/m²
18:36 28.8 °C 7.9 °C 27 % 11 km/h (17 km/h) 0 mm0 mm 6 min 89.3 W/m²
18:30 28.8 °C 7.9 °C 27 % 12 km/h (18 km/h) 0 mm0 mm 6 min 95.7 W/m²
18:24 29 °C 8.1 °C 27 % 12 km/h (19 km/h) 0 mm0 mm 6 min 104.7 W/m²
18:18 29 °C 7 °C 25 % 11 km/h (19 km/h) 0 mm0 mm 6 min 111.1 W/m²
18:12 29.5 °C 5.5 °C 22 % 10 km/h (19 km/h) 0 mm0 mm 6 min 114.4 W/m²
18:06 29.3 °C 6.6 °C 24 % 12 km/h (17 km/h) 0 mm0 mm 6 min 126 W/m²
18:00 29.5 °C 6.2 °C 23 % 11 km/h (19 km/h) 0 mm0 mm 6 min 132.7 W/m²
17:54 29.6 °C 5 °C 21 % 9 km/h (19 km/h) 0 mm0 mm 6 min 139.5 W/m²
17:48 29.7 °C 7 °C 24 % 10 km/h (20 km/h) 0 mm0 mm 6 min 146.5 W/m²
17:42 29.3 °C 5.4 °C 22 % 13 km/h (20 km/h) 0 mm0 mm 6 min 153.4 W/m²
17:36 29.1 °C 3.8 °C 20 % 14 km/h (20 km/h) 0 mm0 mm 6 min 160.9 W/m²
17:30 29.1 °C 5.2 °C 22 % 13 km/h (21 km/h) 0 mm0 mm 6 min 167.7 W/m²
17:24 29.3 °C 6 °C 23 % 12 km/h (22 km/h) 0 mm0 mm 6 min 173.5 W/m²
17:18 29.7 °C 5.7 °C 22 % 13 km/h (22 km/h) 0 mm0 mm 6 min 180.1 W/m²
17:12 29.7 °C 3.6 °C 19 % 14 km/h (23 km/h) 0 mm0 mm 6 min 186.5 W/m²
17:06 29.5 °C 6.8 °C 24 % 13 km/h (23 km/h) 0 mm0 mm 6 min 191.6 W/m²
17:00 29.8 °C 5.8 °C 22 % 12 km/h (21 km/h) 0 mm0 mm 6 min 197.9 W/m²
16:54 30 °C 6.6 °C 23 % 11 km/h (22 km/h) 0 mm0 mm 6 min 203.4 W/m²
16:48 29.8 °C 3.7 °C 19 % 12 km/h (22 km/h) 0 mm0 mm 6 min 208.6 W/m²
16:42 29.8 °C 4.4 °C 20 % 13 km/h (22 km/h) 0 mm0 mm 6 min 214.1 W/m²
16:36 29.6 °C 2 °C 17 % 15 km/h (22 km/h) 0 mm0 mm 6 min 221.2 W/m²
16:30 29.9 °C 0.4 °C 15 % 14 km/h (22 km/h) 0 mm0 mm 6 min 227.2 W/m²
16:24 29.9 °C 4.5 °C 20 % 12 km/h (23 km/h) 0 mm0 mm 6 min 230.8 W/m²
16:18 30.3 °C 2.5 °C 17 % 11 km/h (19 km/h) 0 mm0 mm 6 min 235.9 W/m²
16:12 29.9 °C -2.6 °C 12 % 12 km/h (20 km/h) 0 mm0 mm 6 min 242.2 W/m²
16:06 29.9 °C -2.6 °C 12 % 15 km/h (21 km/h) 0 mm0 mm 6 min 248.6 W/m²
16:00 29.8 °C -0.6 °C 14 % 14 km/h (22 km/h) 0 mm0 mm 6 min 251.4 W/m²
15:54 29.6 °C 0.2 °C 15 % 13 km/h (20 km/h) 0 mm0 mm 6 min 255.5 W/m²
15:48 29.5 °C 1 °C 16 % 12 km/h (20 km/h) 0 mm0 mm 6 min 258.9 W/m²
15:42 29.5 °C 2.7 °C 18 % 10 km/h (20 km/h) 0 mm0 mm 6 min 263.5 W/m²
15:36 29.7 °C 3.6 °C 19 % 9 km/h (19 km/h) 0 mm0 mm 5 min 232.9 W/m²
15:30 29.4 °C 5.5 °C 22 % 11 km/h (19 km/h) 0 mm0 mm 6 min 271.7 W/m²
15:24 29 °C 2.3 °C 18 % 13 km/h (20 km/h) 0 mm0 mm 6 min 276.1 W/m²
15:18 29.4 °C 4.8 °C 21 % 12 km/h (19 km/h) 0 mm0 mm 6 min 278.2 W/m²
15:12 29 °C 4.5 °C 21 % 12 km/h (19 km/h) 0 mm0 mm 6 min 280.5 W/m²
15:06 29.2 °C 6.5 °C 24 % 10 km/h (18 km/h) 0 mm0 mm 6 min 283.6 W/m²
15:00 29 °C 5.8 °C 23 % 12 km/h (19 km/h) 0 mm0 mm 6 min 286.4 W/m²
14:54 28.9 °C 5 °C 22 % 13 km/h (19 km/h) 0 mm0 mm 6 min 288.7 W/m²
14:48 28.8 °C 6.2 °C 24 % 12 km/h (19 km/h) 0 mm0 mm 6 min 289.6 W/m²
14:42 28.7 °C 6.1 °C 24 % 12 km/h (26 km/h) 0 mm0 mm 6 min 292 W/m²
14:36 29 °C 7.5 °C 26 % 12 km/h (26 km/h) 0 mm0 mm 6 min 291.4 W/m²
14:30 28.8 °C 6.2 °C 24 % 8 km/h (18 km/h) 0 mm0 mm 6 min 294.1 W/m²
14:24 28.5 °C 6.6 °C 25 % 10 km/h (19 km/h) 0 mm0 mm 6 min 295.9 W/m²
14:18 28.2 °C 5.7 °C 24 % 13 km/h (19 km/h) 0 mm0 mm 6 min 297.6 W/m²
14:12 28.3 °C 3.9 °C 21 % 13 km/h (19 km/h) 0 mm0 mm 6 min 299 W/m²
14:06 28.3 °C 6.4 °C 25 % 12 km/h (21 km/h) 0 mm0 mm 6 min 299.5 W/m²
14:00 28.2 °C 6.9 °C 26 % 14 km/h (20 km/h) 0 mm0 mm 6 min 300.6 W/m²
13:54 27.9 °C 7.2 °C 27 % 14 km/h (22 km/h) 0 mm0 mm 6 min 297.4 W/m²
13:48 27.9 °C 7.7 °C 28 % 14 km/h (22 km/h) 0 mm0 mm 6 min 299.6 W/m²
13:42 27.9 °C 9.2 °C 31 % 13 km/h (21 km/h) 0 mm0 mm 6 min 301.2 W/m²
13:36 28 °C 9.3 °C 31 % 13 km/h (23 km/h) 0 mm0 mm 6 min 301.2 W/m²
13:30 27.8 °C 10 °C 33 % 14 km/h (23 km/h) 0 mm0 mm 6 min 301.6 W/m²
13:24 27.1 °C 9.4 °C 33 % 14 km/h (21 km/h) 0 mm0 mm 6 min 301 W/m²
13:18 27.2 °C 9.1 °C 32 % 14 km/h (22 km/h) 0 mm0 mm 6 min 300 W/m²
13:12 27.1 °C 9 °C 32 % 14 km/h (22 km/h) 0 mm0 mm 6 min 298.3 W/m²
13:06 27.1 °C 9 °C 32 % 12 km/h (19 km/h) 0 mm0 mm 6 min 297.4 W/m²
13:00 27.1 °C 8 °C 30 % 10 km/h (19 km/h) 0 mm0 mm 6 min 295.9 W/m²
12:54 26.9 °C 8.8 °C 32 % 11 km/h (19 km/h) 0 mm0 mm 6 min 293.6 W/m²
12:48 27.1 °C 9 °C 32 % 12 km/h (20 km/h) 0 mm0 mm 6 min 291.8 W/m²
12:42 26.3 °C 8.3 °C 32 % 12 km/h (20 km/h) 0 mm0 mm 6 min 290.3 W/m²
12:36 26.6 °C 8.1 °C 31 % 10 km/h (18 km/h) 0 mm0 mm 6 min 287.3 W/m²
12:30 26.6 °C 8.5 °C 32 % 10 km/h (16 km/h) 0 mm0 mm 6 min 284.3 W/m²
12:24 26.3 °C 7.8 °C 31 % 10 km/h (16 km/h) 0 mm0 mm 6 min 282.1 W/m²
12:18 26.4 °C 8.4 °C 32 % 9 km/h (19 km/h) 0 mm0 mm 6 min 279.9 W/m²
12:12 26 °C 7.6 °C 31 % 9 km/h (19 km/h) 0 mm0 mm 6 min 276.8 W/m²
12:06 26 °C 7.1 °C 30 % 9 km/h (14 km/h) 0 mm0 mm 6 min 274.3 W/m²
12:00 26.1 °C 8.1 °C 32 % 8 km/h (15 km/h) 0 mm0 mm 6 min 271.4 W/m²
11:54 26.2 °C 7.7 °C 31 % 5 km/h (12 km/h) 0 mm0 mm 6 min 267.7 W/m²
11:48 25.9 °C 7.5 °C 31 % 3 km/h (8 km/h) 0 mm0 mm 6 min 264.2 W/m²
11:42 25.6 °C 7.7 °C 32 % 3 km/h (8 km/h) 0 mm0 mm 6 min 260.2 W/m²
11:36 25.4 °C 8.4 °C 34 % 3 km/h (8 km/h) 0 mm0 mm 6 min 255.7 W/m²
11:30 25.5 °C 8.9 °C 35 % 4 km/h (10 km/h) 0 mm0 mm 6 min 252.1 W/m²
11:24 25.2 °C 7.8 °C 33 % 4 km/h (10 km/h) 0 mm0 mm 6 min 247.7 W/m²
11:18 25.2 °C 7.8 °C 33 % 5 km/h (11 km/h) 0 mm0 mm 6 min 243.2 W/m²
11:12 24.9 °C 8.8 °C 36 % 5 km/h (12 km/h) 0 mm0 mm 6 min 238.5 W/m²
11:06 24.9 °C 8 °C 34 % 4 km/h (10 km/h) 0 mm0 mm 6 min 233.3 W/m²
11:00 24.5 °C 7.6 °C 34 % 5 km/h (9 km/h) 0 mm0 mm 6 min 228.5 W/m²
10:54 24.4 °C 7.5 °C 34 % 4 km/h (9 km/h) 0 mm0 mm 6 min 223 W/m²
10:48 24.1 °C 8.9 °C 38 % 2 km/h (8 km/h) 0 mm0 mm 6 min 217.3 W/m²
10:42 23.9 °C 7.9 °C 36 % 3 km/h (8 km/h) 0 mm0 mm 6 min 211.4 W/m²
10:36 23.7 °C 8.9 °C 39 % 4 km/h (7 km/h) 0 mm0 mm 6 min 206 W/m²
10:30 23.4 °C 9.4 °C 41 % 4 km/h (7 km/h) 0 mm0 mm 6 min 200.7 W/m²
10:24 22.9 °C 8.2 °C 39 % 4 km/h (8 km/h) 0 mm0 mm 6 min 195.5 W/m²
10:18 22.8 °C 8.5 °C 40 % 3 km/h (6 km/h) 0 mm0 mm 6 min 190.3 W/m²
10:12 22.3 °C 9.1 °C 43 % 4 km/h (8 km/h) 0 mm0 mm 6 min 185 W/m²
10:06 21.9 °C 9.1 °C 44 % 4 km/h (8 km/h) 0 mm0 mm 6 min 179.3 W/m²
10:00 21.7 °C 8.9 °C 44 % 4 km/h (7 km/h) 0 mm0 mm 6 min 174.1 W/m²
09:54 21.1 °C 9.3 °C 47 % 5 km/h (9 km/h) 0 mm0 mm 6 min 169 W/m²
09:48 20.8 °C 9.7 °C 49 % 5 km/h (9 km/h) 0 mm0 mm 6 min 163.1 W/m²
09:42 20 °C 9.5 °C 51 % 6 km/h (12 km/h) 0 mm0 mm 6 min 157.2 W/m²
09:36 19.4 °C 9.8 °C 54 % 7 km/h (12 km/h) 0 mm0 mm 6 min 151 W/m²
09:30 18.8 °C 9.8 °C 56 % 7 km/h (10 km/h) 0 mm0 mm 6 min 145.1 W/m²
09:24 18.4 °C 10.2 °C 59 % 8 km/h (12 km/h) 0 mm0 mm 6 min 136.3 W/m²
09:18 17.8 °C 10.2 °C 61 % 9 km/h (11 km/h) 0 mm0 mm 6 min 112.3 W/m²
09:12 17.2 °C 9.6 °C 61 % 9 km/h (12 km/h) 0 mm0 mm 3 min 86.8 W/m²
09:06 17.1 °C 9.8 °C 62 % 8 km/h (12 km/h) 0 mm0 mm 4 min 89.4 W/m²
09:00 16.8 °C 10.4 °C 66 % 7 km/h (10 km/h) 0 mm0 mm 6 min 116.4 W/m²
08:54 16.1 °C 10 °C 67 % 6 km/h (9 km/h) 0 mm0 mm 6 min 108 W/m²
08:48 15.5 °C 9.8 °C 69 % 7 km/h (9 km/h) 0 mm0 mm 6 min 99.3 W/m²
08:42 14.9 °C 9.7 °C 71 % 8 km/h (11 km/h) 0 mm0 mm 6 min 91.9 W/m²
08:36 14.2 °C 9.4 °C 73 % 9 km/h (11 km/h) 0 mm0 mm 6 min 86 W/m²
08:30 13.7 °C 9.3 °C 75 % 8 km/h (11 km/h) 0 mm0 mm 6 min 78.4 W/m²
08:24 13.4 °C 9.1 °C 75 % 8 km/h (11 km/h) 0 mm0 mm 6 min 69.9 W/m²
08:18 13 °C 8.7 °C 75 % 8 km/h (11 km/h) 0 mm0 mm 6 min 61.5 W/m²
08:12 12.2 °C 8.7 °C 79 % 8 km/h (12 km/h) 0 mm0 mm 6 min 49.3 W/m²
08:06 12.1 °C 8.6 °C 79 % 9 km/h (12 km/h) 0 mm0 mm 6 min 44.5 W/m²
08:00 11.6 °C 8.4 °C 81 % 10 km/h (13 km/h) 0 mm0 mm 6 min 40.3 W/m²
07:54 11.1 °C 8.1 °C 82 % 10 km/h (14 km/h) 0 mm0 mm 6 min 35.2 W/m²
07:48 10.5 °C 7.9 °C 84 % 9 km/h (14 km/h) 0 mm0 mm 6 min 29.6 W/m²
07:42 10.2 °C 8 °C 86 % 8 km/h (12 km/h) 0 mm0 mm 6 min 24.3 W/m²
07:36 9.3 °C 7.7 °C 90 % 8 km/h (12 km/h) 0 mm0 mm 2 min 11.7 W/m²
07:30 9.1 °C 7.2 °C 88 % 6 km/h (10 km/h) 0 mm0 mm 0 min 5.2 W/m²
07:24 9.3 °C 7.6 °C 89 % 5 km/h (7 km/h) 0 mm0 mm 0 min 3.8 W/m²
07:18 9 °C 7.4 °C 90 % 6 km/h (8 km/h) 0 mm0 mm 0 min 0 W/m²
07:12 9 °C 7.4 °C 90 % 6 km/h (8 km/h) 0 mm0 mm 0 min 0 W/m²
07:06 8.9 °C 7.3 °C 90 % 6 km/h (9 km/h) 0 mm0 mm 0 min 0 W/m²
07:00 8.9 °C 7.2 °C 89 % 8 km/h (10 km/h) 0 mm0 mm 0 min 0 W/m²
06:54 8.9 °C 7.2 °C 89 % 8 km/h (10 km/h) 0 mm0 mm 0 min 0 W/m²
06:48 9 °C 7.1 °C 88 % 6 km/h (9 km/h) 0 mm0 mm 0 min 0 W/m²
06:42 9.2 °C 7.3 °C 88 % 5 km/h (7 km/h) 0 mm0 mm 0 min 0 W/m²
06:36 9.2 °C 7.3 °C 88 % 6 km/h (9 km/h) 0 mm0 mm 0 min 0 W/m²
06:30 9.1 °C 7.2 °C 88 % 8 km/h (10 km/h) 0 mm0 mm 0 min 0 W/m²
06:24 9 °C 7.1 °C 88 % 7 km/h (9 km/h) 0 mm0 mm 0 min 0 W/m²
06:18 9.5 °C 7.4 °C 87 % 7 km/h (11 km/h) 0 mm0 mm 0 min 0 W/m²
06:12 9.5 °C 7.8 °C 89 % 7 km/h (11 km/h) 0 mm0 mm 0 min 0 W/m²
06:06 9.2 °C 7.3 °C 88 % 7 km/h (9 km/h) 0 mm0 mm 0 min 0 W/m²
06:00 9.7 °C 7.6 °C 87 % 7 km/h (9 km/h) 0 mm0 mm 0 min 0 W/m²
05:54 9.5 °C 7.6 °C 88 % 6 km/h (9 km/h) 0 mm0 mm 0 min 0 W/m²
05:48 9.4 °C 7.5 °C 88 % 7 km/h (9 km/h) 0 mm0 mm 0 min 0 W/m²
05:42 9.6 °C 7.5 °C 87 % 6 km/h (8 km/h) 0 mm0 mm 0 min 0 W/m²
05:36 9.8 °C 7.7 °C 87 % 5 km/h (8 km/h) 0 mm0 mm 0 min 0 W/m²
05:30 9.7 °C 7.6 °C 87 % 6 km/h (10 km/h) 0 mm0 mm 0 min 0 W/m²
05:24 9.7 °C 7.5 °C 86 % 8 km/h (11 km/h) 0 mm0 mm 0 min 0 W/m²
05:18 10.5 °C 7.9 °C 84 % 8 km/h (11 km/h) 0 mm0 mm 0 min 0 W/m²
05:12 9.9 °C 8 °C 88 % 6 km/h (9 km/h) 0 mm0 mm 0 min 0 W/m²
05:06 9.7 °C 7.6 °C 87 % 5 km/h (9 km/h) 0 mm0 mm 0 min 0 W/m²
05:00 9.9 °C 7.7 °C 86 % 5 km/h (9 km/h) 0 mm0 mm 0 min 0 W/m²
04:54 10.2 °C 8 °C 86 % 6 km/h (8 km/h) 0 mm0 mm 0 min 0 W/m²
04:48 10 °C 7.8 °C 86 % 6 km/h (8 km/h) 0 mm0 mm 0 min 0 W/m²
04:42 10.1 °C 7.5 °C 84 % 6 km/h (8 km/h) 0 mm0 mm 0 min 0 W/m²
04:36 10.6 °C 8 °C 84 % 6 km/h (10 km/h) 0 mm0 mm 0 min 0 W/m²
04:30 10.5 °C 7.9 °C 84 % 7 km/h (10 km/h) 0 mm0 mm 0 min 0 W/m²
04:24 10.2 °C 7.8 °C 85 % 7 km/h (11 km/h) 0 mm0 mm 0 min 0 W/m²
04:18 10.3 °C 7.9 °C 85 % 5 km/h (11 km/h) 0 mm0 mm 0 min 0 W/m²
04:12 10.7 °C 8.1 °C 84 % 6 km/h (12 km/h) 0 mm0 mm 0 min 0 W/m²
04:06 11 °C 8.2 °C 83 % 8 km/h (12 km/h) 0 mm0 mm 0 min 0 W/m²
04:00 10.6 °C 8 °C 84 % 9 km/h (11 km/h) 0 mm0 mm 0 min 0 W/m²
03:54 10.8 °C 8.2 °C 84 % 7 km/h (10 km/h) 0 mm0 mm 0 min 0 W/m²
03:48 10.7 °C 7.9 °C 83 % 6 km/h (8 km/h) 0 mm0 mm 0 min 0 W/m²
03:42 11.1 °C 8.3 °C 83 % 6 km/h (9 km/h) 0 mm0 mm 0 min 0 W/m²
03:36 10.7 °C 8.1 °C 84 % 7 km/h (9 km/h) 0 mm0 mm 0 min 0 W/m²
03:30 10.7 °C 8.1 °C 84 % 6 km/h (8 km/h) 0 mm0 mm 0 min 0 W/m²
03:24 11 °C 8.2 °C 83 % 6 km/h (11 km/h) 0 mm0 mm 0 min 0 W/m²
03:18 11.2 °C 8.2 °C 82 % 7 km/h (9 km/h) 0 mm0 mm 0 min 0 W/m²
03:12 11.3 °C 8.2 °C 81 % 6 km/h (9 km/h) 0 mm0 mm 0 min 0 W/m²
03:06 11.2 °C 8.2 °C 82 % 5 km/h (7 km/h) 0 mm0 mm 0 min 0 W/m²
03:00 11.2 °C 8.2 °C 82 % 5 km/h (8 km/h) 0 mm0 mm 0 min 0 W/m²
02:54 11.3 °C 8.3 °C 82 % 5 km/h (7 km/h) 0 mm0 mm 0 min 0 W/m²
02:48 11.3 °C 8.3 °C 82 % 5 km/h (10 km/h) 0 mm0 mm 0 min 0 W/m²
02:42 11.2 °C 8.2 °C 82 % 6 km/h (9 km/h) 0 mm0 mm 0 min 0 W/m²
02:36 11.4 °C 8.3 °C 81 % 6 km/h (9 km/h) 0 mm0 mm 0 min 0 W/m²
02:30 11.4 °C 8.3 °C 81 % 7 km/h (11 km/h) 0 mm0 mm 0 min 0 W/m²
02:24 11.4 °C 8.4 °C 82 % 6 km/h (11 km/h) 0 mm0 mm 0 min 0 W/m²
02:18 11.7 °C 8.4 °C 80 % 5 km/h (8 km/h) 0 mm0 mm 0 min 0 W/m²
02:12 11.8 °C 8.5 °C 80 % 5 km/h (8 km/h) 0 mm0 mm 0 min 0 W/m²
02:06 11.9 °C 8.4 °C 79 % 5 km/h (8 km/h) 0 mm0 mm 0 min 0 W/m²
02:00 12.3 °C 8.4 °C 77 % 7 km/h (9 km/h) 0 mm0 mm 0 min 0 W/m²
01:54 12.1 °C 8.4 °C 78 % 7 km/h (9 km/h) 0 mm0 mm 0 min 0 W/m²
01:48 11.8 °C 8.5 °C 80 % 7 km/h (9 km/h) 0 mm0 mm 0 min 0 W/m²
01:42 12.1 °C 8.8 °C 80 % 6 km/h (9 km/h) 0 mm0 mm 0 min 0 W/m²
01:36 12.1 °C 8.8 °C 80 % 7 km/h (10 km/h) 0 mm0 mm 0 min 0 W/m²
01:30 12 °C 8.7 °C 80 % 8 km/h (10 km/h) 0 mm0 mm 0 min 0 W/m²
01:24 12.4 °C 8.9 °C 79 % 8 km/h (11 km/h) 0 mm0 mm 0 min 0 W/m²
01:18 12.7 °C 8.6 °C 76 % 8 km/h (11 km/h) 0 mm0 mm 0 min 0 W/m²
01:12 12.6 °C 8.7 °C 77 % 8 km/h (11 km/h) 0 mm0 mm 0 min 0 W/m²
01:06 12.8 °C 8.7 °C 76 % 6 km/h (9 km/h) 0 mm0 mm 0 min 0 W/m²
01:00 12.9 °C 9 °C 77 % 5 km/h (10 km/h) 0 mm0 mm 0 min 0 W/m²
00:54 12.8 °C 9.1 °C 78 % 8 km/h (11 km/h) 0 mm0 mm 0 min 0 W/m²
00:48 12.6 °C 8.9 °C 78 % 7 km/h (10 km/h) 0 mm0 mm 0 min 0 W/m²
00:42 12.8 °C 8.9 °C 77 % 5 km/h (8 km/h) 0 mm0 mm 0 min 0 W/m²
00:36 13 °C 9.1 °C 77 % 4 km/h (7 km/h) 0 mm0 mm 0 min 0 W/m²
00:30 13.6 °C 9 °C 74 % 6 km/h (12 km/h) 0 mm0 mm 0 min 0 W/m²
00:24 13.8 °C 9 °C 73 % 8 km/h (12 km/h) 0 mm0 mm 0 min 0 W/m²
00:18 13.5 °C 9 °C 74 % 7 km/h (9 km/h) 0 mm0 mm 0 min 0 W/m²
00:12 13.6 °C 9.4 °C 76 % 6 km/h (9 km/h) 0 mm0 mm 0 min 0 W/m²
00:06 14 °C 9.4 °C 74 % 6 km/h (11 km/h) 0 mm0 mm 0 min 0 W/m²
00:00 13.9 °C 9.5 °C 75 % 7 km/h (11 km/h) 0 mm0 mm 0 min 0 W/m²

Données via Météo-France

Relevés météo à St-Auban-Sur-Ouveze

Cette page rassemble les observations de la station de St-Auban-Sur-Ouveze : température, humidité, vent, précipitations et pression atmosphérique. Les graphiques facilitent le suivi de la journée, tandis que le tableau donne accès aux mesures horaires et infra-horaires disponibles.

Pour replacer ces mesures dans leur contexte, consultez la climatologie de St-Auban-Sur-Ouveze ainsi que ses normales et records. Retrouvez aussi la carte des observations météo en temps réel.